createdAt,value
2023-01-20T00:01:34.995Z,48.25
2023-01-20T00:04:03.372Z,44.22
2023-01-20T00:06:31.682Z,46.28
2023-01-20T00:09:01.305Z,44.08
2023-01-20T00:11:30.293Z,51.50
2023-01-20T00:14:00.457Z,62.92
2023-01-20T00:16:29.313Z,49.13
2023-01-20T00:19:01.421Z,50.25
2023-01-20T00:21:29.509Z,54.08
2023-01-20T00:23:57.605Z,58.40
2023-01-20T00:26:26.431Z,59.38
2023-01-20T00:28:56.078Z,50.80
2023-01-20T00:31:26.469Z,48.88
2023-01-20T00:33:56.609Z,45.38
2023-01-20T00:36:27.721Z,51.92
2023-01-20T00:38:56.076Z,40.08
2023-01-20T00:41:24.948Z,42.65
2023-01-20T00:43:54.141Z,51.75
2023-01-20T00:46:23.042Z,50.83
2023-01-20T00:48:51.283Z,48.47
2023-01-20T00:51:19.490Z,53.40
2023-01-20T00:53:48.981Z,44.72
2023-01-20T00:56:17.540Z,44.92
2023-01-20T00:58:46.192Z,47.55
2023-01-20T05:07:45.136Z,67.28
2023-01-20T05:10:13.447Z,65.43
2023-01-20T05:12:41.542Z,68.45
2023-01-20T05:15:10.343Z,63.80
2023-01-20T05:17:38.481Z,75.32
2023-01-20T05:20:07.270Z,69.97
2023-01-20T05:22:36.778Z,70.90
2023-01-20T05:25:05.421Z,67.25
2023-01-20T05:27:36.104Z,67.40
2023-01-20T05:30:04.643Z,83.15
2023-01-20T05:32:32.926Z,70.50
2023-01-20T05:35:01.062Z,73.85
2023-01-20T05:37:29.397Z,72.85
2023-01-20T05:39:58.932Z,65.22
2023-01-20T05:42:27.006Z,71.93
2023-01-20T05:44:55.175Z,73.03
2023-01-20T05:47:23.222Z,72.95
2023-01-20T05:49:51.470Z,73.40
2023-01-20T05:52:21.692Z,71.53
2023-01-20T05:54:49.835Z,72.32
2023-01-20T05:57:19.315Z,81.05
2023-01-20T05:59:48.435Z,73.47
2023-01-20T06:02:18.737Z,73.50
2023-01-20T06:04:47.308Z,70.85
2023-01-20T06:07:16.399Z,77.85
2023-01-20T06:09:44.500Z,70.32
2023-01-20T06:12:12.594Z,72.20
2023-01-20T06:14:42.076Z,76.00
2023-01-20T06:17:10.886Z,69.22
2023-01-20T06:19:39.021Z,71.53
2023-01-20T06:22:09.395Z,65.57
2023-01-20T06:24:37.477Z,66.97
2023-01-20T06:27:05.838Z,78.03
2023-01-20T06:29:34.012Z,72.28
2023-01-20T06:32:04.692Z,75.32
2023-01-20T06:34:32.762Z,73.18
2023-01-20T06:37:01.848Z,72.43
2023-01-20T06:39:30.321Z,78.00
2023-01-20T06:41:59.688Z,71.10
2023-01-20T06:44:28.518Z,70.38
2023-01-20T06:46:57.888Z,70.72
2023-01-20T06:49:27.805Z,78.10
2023-01-20T06:51:56.163Z,71.03
2023-01-20T06:54:24.551Z,82.25
2023-01-20T06:56:52.642Z,82.68
2023-01-20T06:59:20.767Z,71.10
2023-01-20T07:01:49.076Z,72.18
2023-01-20T07:04:19.789Z,76.97
2023-01-20T07:06:49.351Z,76.45
2023-01-20T07:09:17.524Z,78.57
2023-01-20T07:11:58.603Z,75.32
2023-01-20T07:14:27.309Z,90.78
2023-01-20T07:16:55.455Z,83.72
2023-01-20T07:19:25.666Z,73.90
2023-01-20T07:21:58.749Z,79.93
2023-01-20T07:24:26.915Z,80.80
2023-01-20T07:26:55.013Z,83.28
2023-01-20T07:29:25.867Z,74.35
2023-01-20T07:31:54.167Z,80.80
2023-01-20T07:34:25.159Z,76.00
2023-01-20T07:36:53.596Z,67.88
2023-01-20T07:39:23.437Z,72.57
2023-01-20T07:41:51.544Z,66.20
2023-01-20T07:44:20.720Z,74.93
2023-01-20T07:46:51.558Z,81.47
2023-01-20T07:49:19.772Z,63.72
2023-01-20T07:51:47.922Z,71.63
2023-01-20T07:54:16.038Z,85.75
2023-01-20T07:56:45.527Z,90.07
2023-01-20T07:59:13.584Z,74.75
2023-01-20T08:01:43.680Z,75.03
2023-01-20T08:04:13.121Z,87.07
2023-01-20T08:06:41.403Z,75.95
2023-01-20T08:09:12.296Z,79.70
2023-01-20T08:11:40.571Z,83.47
2023-01-20T08:14:10.036Z,72.03
2023-01-20T08:16:38.229Z,73.53
2023-01-20T08:19:06.322Z,76.65
2023-01-20T08:21:34.661Z,69.30
2023-01-20T08:24:06.446Z,75.22
2023-01-20T08:26:35.150Z,81.27
2023-01-20T08:29:04.519Z,79.88
2023-01-20T08:31:34.467Z,78.95
2023-01-20T08:34:02.721Z,79.90
2023-01-20T08:36:33.081Z,84.85
2023-01-20T08:39:03.514Z,77.88
2023-01-20T08:41:34.645Z,78.45
2023-01-20T08:44:05.419Z,68.35
2023-01-20T08:46:35.456Z,76.07
2023-01-20T08:49:03.634Z,72.28
2023-01-20T08:51:34.154Z,76.63
2023-01-20T08:54:02.867Z,69.30
2023-01-20T08:56:31.706Z,88.53
2023-01-20T08:59:02.166Z,75.90
2023-01-20T09:01:33.740Z,76.30
2023-01-20T09:04:06.239Z,80.45
2023-01-20T09:06:46.277Z,84.78
2023-01-20T09:09:15.213Z,86.63
2023-01-20T09:11:44.875Z,77.97
2023-01-20T09:14:13.366Z,81.93
2023-01-20T09:16:41.504Z,83.93
2023-01-20T09:19:11.191Z,79.45
2023-01-20T09:21:41.422Z,96.95
2023-01-20T09:24:10.047Z,88.70
2023-01-20T09:26:40.798Z,85.70
2023-01-20T09:29:11.530Z,86.75
2023-01-20T09:31:43.964Z,83.72
2023-01-20T09:34:19.075Z,84.18
2023-01-20T09:36:50.277Z,95.97
2023-01-20T09:39:41.433Z,96.50
2023-01-20T09:42:44.135Z,75.10
2023-01-20T09:45:25.787Z,73.55
2023-01-20T09:47:59.454Z,76.85
2023-01-20T09:50:56.089Z,73.05
2023-01-20T09:53:46.000Z,76.55
2023-01-20T09:56:17.867Z,107.15
2023-01-20T09:58:54.063Z,127.43
2023-01-20T15:05:59.684Z,85.00
2023-01-20T15:08:29.993Z,92.13
2023-01-20T15:11:21.837Z,107.93
2023-01-20T15:14:11.707Z,110.72
2023-01-20T15:16:49.425Z,105.57
2023-01-20T15:19:35.702Z,101.53
2023-01-20T15:22:29.068Z,89.90
2023-01-20T15:24:57.925Z,97.78
2023-01-20T15:27:33.345Z,164.35
2023-01-20T15:30:29.843Z,89.85
2023-01-20T15:32:57.929Z,93.43
2023-01-20T15:35:26.864Z,98.30
2023-01-20T15:37:57.101Z,93.90
2023-01-20T15:40:26.816Z,105.47
2023-01-20T15:42:57.542Z,106.40
2023-01-20T15:45:26.784Z,127.50
2023-01-20T15:47:54.909Z,102.00
2023-01-20T15:50:26.595Z,94.15
2023-01-20T15:52:56.568Z,98.38
2023-01-20T15:55:24.745Z,100.20
2023-01-20T15:57:53.936Z,97.40
2023-01-20T16:00:23.995Z,102.85
2023-01-20T16:02:56.211Z,102.35
2023-01-20T16:05:25.170Z,97.30
2023-01-20T16:07:53.981Z,105.05
2023-01-20T16:10:23.589Z,100.35
2023-01-20T16:12:52.306Z,95.97
2023-01-20T16:15:20.842Z,96.65
2023-01-20T16:17:51.196Z,97.40
2023-01-20T16:20:23.328Z,99.03
2023-01-20T16:22:51.718Z,101.82
2023-01-20T16:25:20.030Z,96.63
2023-01-20T16:27:49.560Z,102.35
2023-01-20T16:30:19.795Z,111.53
2023-01-20T16:32:47.987Z,104.32
2023-01-20T16:35:18.051Z,96.30
2023-01-20T16:37:48.792Z,96.82
2023-01-20T16:40:19.400Z,109.00
2023-01-20T16:42:49.178Z,100.40
2023-01-20T16:45:27.782Z,108.45
2023-01-20T16:47:56.929Z,102.65
2023-01-20T16:50:27.852Z,98.97
2023-01-20T16:52:56.071Z,118.25
2023-01-20T16:55:26.552Z,122.60
2023-01-20T16:57:56.237Z,116.10
2023-01-20T17:00:24.610Z,104.35
2023-01-20T17:02:53.243Z,101.75
2023-01-20T17:05:25.608Z,129.38
2023-01-20T17:07:54.685Z,101.22
2023-01-20T17:10:23.066Z,115.95
2023-01-20T17:12:54.232Z,105.03
2023-01-20T17:15:25.070Z,102.05
2023-01-20T17:17:55.858Z,92.32
2023-01-20T17:20:26.116Z,106.40
2023-01-20T17:22:55.428Z,100.78
2023-01-20T17:25:24.298Z,112.28
2023-01-20T17:27:52.724Z,137.07
2023-01-20T17:30:21.427Z,115.35
2023-01-20T17:32:51.455Z,136.73
2023-01-20T17:35:19.588Z,128.25
2023-01-20T17:37:47.752Z,93.35
2023-01-20T17:40:17.090Z,243.43
2023-01-20T17:42:46.481Z,92.57
2023-01-20T17:45:14.802Z,99.15
2023-01-20T17:47:43.153Z,95.55
2023-01-20T17:50:13.306Z,115.88
2023-01-20T17:52:41.561Z,96.75
2023-01-20T17:55:10.501Z,98.22
2023-01-20T17:57:38.930Z,107.03
2023-01-20T18:00:08.272Z,83.93
2023-01-20T18:02:36.559Z,97.63
2023-01-20T18:05:05.379Z,99.22
2023-01-20T18:07:34.999Z,99.30
2023-01-20T18:10:03.907Z,110.65
2023-01-20T18:12:34.421Z,98.68
2023-01-20T18:15:02.578Z,106.00
2023-01-20T18:17:34.278Z,94.05
2023-01-20T18:20:02.509Z,102.57
2023-01-20T18:22:30.866Z,105.88
2023-01-20T18:25:00.389Z,107.15
2023-01-20T18:27:28.631Z,91.20
2023-01-20T18:29:57.036Z,105.88
2023-01-20T18:32:25.948Z,104.43
2023-01-20T18:34:54.111Z,105.97
2023-01-20T18:37:24.331Z,101.13
2023-01-20T18:39:52.412Z,103.00
2023-01-20T18:42:21.965Z,121.10
2023-01-20T18:44:49.999Z,91.20
2023-01-20T18:47:18.140Z,91.53
2023-01-20T18:49:46.399Z,88.35
2023-01-20T18:52:15.211Z,99.35
2023-01-20T18:54:43.396Z,94.28
2023-01-20T18:57:11.465Z,84.60
2023-01-20T18:59:41.997Z,102.03
2023-01-20T19:02:10.797Z,99.82
2023-01-20T19:04:39.088Z,93.07
2023-01-20T19:07:09.266Z,101.25
2023-01-20T19:09:37.471Z,92.40
2023-01-20T19:12:06.706Z,94.07
2023-01-20T19:14:34.770Z,81.63
2023-01-20T19:17:04.200Z,83.13
2023-01-20T19:19:32.355Z,95.30
2023-01-20T19:22:00.405Z,84.30
2023-01-20T19:24:29.055Z,83.18
2023-01-20T19:26:58.035Z,89.50
2023-01-20T19:29:29.564Z,91.55
2023-01-20T19:32:00.341Z,88.22
2023-01-20T19:34:30.028Z,87.28
2023-01-20T19:36:59.755Z,90.88
2023-01-20T19:39:28.142Z,84.78
2023-01-20T19:41:56.273Z,89.00
2023-01-20T19:44:25.354Z,84.72
2023-01-20T19:46:53.464Z,74.43
2023-01-20T19:49:21.618Z,82.35
2023-01-20T19:51:51.129Z,95.80
2023-01-20T19:54:19.772Z,107.18
2023-01-20T19:56:47.865Z,89.57
2023-01-20T19:59:16.145Z,83.68
2023-01-20T20:01:44.356Z,90.85
2023-01-20T20:04:13.782Z,74.78
2023-01-20T20:06:47.901Z,84.45
2023-01-20T20:09:19.420Z,83.72
2023-01-20T20:11:48.305Z,72.40
2023-01-20T20:14:19.307Z,87.85
2023-01-20T20:16:48.286Z,72.20
2023-01-20T20:19:18.244Z,90.80
2023-01-20T20:21:47.058Z,109.75
2023-01-20T20:24:18.853Z,85.63
2023-01-20T20:26:48.125Z,83.23
2023-01-20T20:29:18.595Z,76.63
2023-01-20T20:31:46.882Z,81.45
2023-01-20T20:34:17.044Z,91.20
2023-01-20T20:36:45.649Z,71.47
2023-01-20T20:39:15.408Z,71.20
2023-01-20T20:41:45.292Z,73.00
2023-01-20T20:44:13.712Z,67.45
2023-01-20T20:46:41.877Z,74.68
2023-01-20T20:49:14.855Z,75.22
2023-01-20T20:51:43.855Z,69.88
2023-01-20T20:54:13.928Z,82.82
2023-01-20T20:56:42.142Z,70.00
2023-01-20T20:59:11.847Z,69.05
2023-01-20T21:01:40.061Z,67.85
2023-01-20T21:04:08.640Z,69.25
2023-01-20T21:06:36.754Z,64.20
2023-01-20T21:09:04.885Z,62.55
2023-01-20T21:11:33.407Z,71.60
2023-01-20T21:14:01.788Z,65.40
2023-01-20T21:16:31.397Z,64.47
2023-01-20T21:19:01.381Z,62.17
2023-01-20T21:21:29.931Z,64.13
2023-01-20T21:23:59.746Z,61.58
2023-01-20T21:26:30.624Z,65.93
2023-01-20T21:29:01.685Z,61.60
2023-01-20T21:31:34.709Z,66.43
2023-01-20T21:34:03.787Z,60.40
2023-01-20T21:36:33.921Z,53.13
2023-01-20T21:39:02.165Z,60.13
2023-01-20T21:41:30.298Z,51.00
2023-01-20T21:44:18.354Z,52.38
2023-01-20T21:46:49.454Z,55.15
2023-01-20T21:49:35.221Z,50.97
2023-01-20T21:52:20.809Z,56.53
2023-01-20T21:54:48.921Z,54.40
2023-01-20T21:57:17.121Z,53.85
2023-01-20T21:59:45.882Z,49.10
2023-01-20T22:02:17.692Z,58.10
2023-01-20T22:04:46.649Z,52.28
2023-01-20T22:07:15.762Z,51.78
2023-01-20T22:09:43.861Z,47.38
2023-01-20T22:12:12.293Z,50.22
2023-01-20T22:14:40.479Z,46.30
2023-01-20T22:17:10.171Z,53.90
2023-01-20T22:19:40.747Z,46.40
2023-01-20T22:22:09.094Z,44.10
2023-01-20T22:24:37.291Z,47.55
2023-01-20T22:27:06.438Z,38.70
2023-01-20T22:29:34.885Z,43.70
2023-01-20T22:32:04.202Z,48.38
2023-01-20T22:34:32.877Z,50.67
2023-01-20T22:37:02.349Z,46.22
2023-01-20T22:39:30.511Z,44.65
2023-01-20T22:41:58.634Z,49.30
2023-01-20T22:44:29.857Z,54.08
2023-01-20T22:46:57.912Z,45.17
2023-01-20T22:49:25.937Z,62.35
2023-01-20T22:51:55.569Z,49.83
2023-01-20T22:54:25.440Z,46.83
2023-01-20T22:56:53.591Z,56.85
2023-01-20T22:59:21.664Z,49.40
2023-01-20T23:01:50.083Z,47.33
2023-01-20T23:04:18.301Z,49.97
2023-01-20T23:06:46.453Z,47.08
2023-01-20T23:09:15.348Z,54.28
2023-01-20T23:11:44.923Z,61.40
2023-01-20T23:14:13.592Z,50.10
2023-01-20T23:16:42.440Z,52.88
2023-01-20T23:19:11.040Z,72.28
2023-01-20T23:21:39.675Z,51.03
2023-01-20T23:24:08.992Z,49.25
2023-01-20T23:26:37.113Z,53.13
2023-01-20T23:29:06.610Z,45.60
2023-01-20T23:31:35.174Z,47.78
2023-01-20T23:34:03.370Z,51.67
2023-01-20T23:36:31.667Z,57.40
2023-01-20T23:38:59.825Z,54.47
2023-01-20T23:41:27.905Z,57.90
2023-01-20T23:43:58.430Z,55.97
2023-01-20T23:46:27.859Z,56.85
2023-01-20T23:48:56.046Z,46.28
2023-01-20T23:51:24.451Z,62.97
2023-01-20T23:53:54.783Z,58.42
2023-01-20T23:56:24.224Z,57.72
2023-01-20T23:58:54.227Z,61.20
